createdAt,value
2019-03-27T00:01:30.486Z,83.24
2019-03-27T00:04:02.046Z,83.26
2019-03-27T00:06:33.584Z,83.50
2019-03-27T00:09:05.774Z,83.63
2019-03-27T00:11:37.019Z,83.58
2019-03-27T00:14:08.265Z,83.85
2019-03-27T00:16:40.859Z,83.95
2019-03-27T00:19:12.403Z,84.27
2019-03-27T00:21:43.747Z,84.50
2019-03-27T00:24:15.203Z,84.90
2019-03-27T00:26:46.554Z,84.96
2019-03-27T00:29:18.003Z,84.97
2019-03-27T00:31:49.368Z,85.13
2019-03-27T00:34:20.913Z,85.10
2019-03-27T00:36:52.374Z,85.16
2019-03-27T00:39:23.746Z,85.20
2019-03-27T00:41:55.270Z,85.07
2019-03-27T00:44:27.820Z,85.23
2019-03-27T00:46:59.974Z,85.34
2019-03-27T00:49:31.473Z,85.46
2019-03-27T00:52:02.931Z,85.01
2019-03-27T00:54:34.175Z,84.79
2019-03-27T00:57:05.635Z,85.05
2019-03-27T00:59:37.081Z,85.29
2019-03-27T01:02:08.332Z,85.76
2019-03-27T01:04:39.784Z,85.75
2019-03-27T01:07:11.125Z,86.09
2019-03-27T01:09:42.405Z,86.16
2019-03-27T01:12:13.837Z,86.26
2019-03-27T01:14:44.994Z,87.07
2019-03-27T01:17:16.439Z,86.83
2019-03-27T01:19:47.686Z,86.94
2019-03-27T01:22:19.038Z,86.87
2019-03-27T01:24:50.375Z,87.10
2019-03-27T01:27:21.729Z,86.92
2019-03-27T01:29:53.194Z,87.18
2019-03-27T01:32:24.446Z,86.99
2019-03-27T01:34:55.696Z,86.97
2019-03-27T01:37:27.147Z,87.22
2019-03-27T01:39:58.492Z,87.46
2019-03-27T01:42:30.109Z,87.88
2019-03-27T01:45:01.713Z,88.25
2019-03-27T01:47:33.164Z,88.77
2019-03-27T01:50:06.570Z,88.99
2019-03-27T01:52:38.728Z,88.80
2019-03-27T01:55:10.180Z,89.12
2019-03-27T01:57:41.527Z,89.26
2019-03-27T02:00:13.352Z,89.29
2019-03-27T02:02:45.866Z,89.52
2019-03-27T02:05:17.119Z,89.32
2019-03-27T02:07:48.443Z,90.11
2019-03-27T02:10:20.122Z,90.06
2019-03-27T02:12:51.478Z,90.50
2019-03-27T02:15:22.621Z,90.79
2019-03-27T02:17:53.768Z,91.18
2019-03-27T02:20:25.225Z,91.52
2019-03-27T02:22:56.468Z,91.42
2019-03-27T02:25:27.823Z,91.22
2019-03-27T02:27:59.190Z,91.00
2019-03-27T02:30:30.511Z,90.82
2019-03-27T02:33:01.925Z,90.73
2019-03-27T02:35:33.217Z,90.71
2019-03-27T02:38:04.614Z,90.73
2019-03-27T02:40:35.945Z,90.54
2019-03-27T02:43:07.278Z,90.54
2019-03-27T02:45:38.632Z,90.41
2019-03-27T02:48:13.818Z,90.34
2019-03-27T02:50:43.302Z,90.41
2019-03-27T02:53:14.626Z,90.50
2019-03-27T02:55:47.205Z,90.23
2019-03-27T02:58:18.670Z,90.15
2019-03-27T03:00:49.913Z,90.45
2019-03-27T03:03:21.267Z,90.31
2019-03-27T03:05:52.723Z,90.48
2019-03-27T03:08:24.168Z,90.34
2019-03-27T03:10:55.317Z,90.41
2019-03-27T03:13:26.558Z,90.51
2019-03-27T03:15:57.946Z,90.42
2019-03-27T03:18:29.372Z,90.52
2019-03-27T03:21:00.638Z,90.18
2019-03-27T03:23:31.981Z,90.28
2019-03-27T03:26:03.518Z,90.71
2019-03-27T03:28:34.765Z,90.66
2019-03-27T03:31:06.052Z,90.92
2019-03-27T03:33:37.388Z,90.81
2019-03-27T03:36:08.816Z,91.06
2019-03-27T03:38:40.163Z,91.06
2019-03-27T03:41:11.627Z,91.02
2019-03-27T03:43:43.064Z,90.87
2019-03-27T03:46:14.629Z,90.82
2019-03-27T03:48:46.783Z,91.04
2019-03-27T03:51:18.354Z,91.46
2019-03-27T03:53:49.807Z,91.30
2019-03-27T03:56:21.264Z,91.32
2019-03-27T03:58:52.821Z,91.65
2019-03-27T04:01:24.376Z,91.49
2019-03-27T04:03:56.953Z,91.26
2019-03-27T04:06:28.306Z,91.35
2019-03-27T04:08:59.744Z,91.40
2019-03-27T04:11:31.104Z,91.36
2019-03-27T04:14:02.357Z,91.16
2019-03-27T04:16:33.699Z,91.03
2019-03-27T04:19:05.278Z,90.87
2019-03-27T04:21:36.822Z,90.82
2019-03-27T04:24:08.081Z,90.89
2019-03-27T04:26:39.420Z,90.89
2019-03-27T04:29:10.871Z,90.75
2019-03-27T04:31:42.122Z,90.67
2019-03-27T04:34:13.387Z,90.66
2019-03-27T04:36:44.817Z,90.60
2019-03-27T04:39:16.172Z,90.46
2019-03-27T04:41:47.521Z,90.38
2019-03-27T04:44:19.090Z,90.36
2019-03-27T04:46:50.832Z,90.21
2019-03-27T04:49:22.286Z,90.16
2019-03-27T04:51:53.740Z,89.95
2019-03-27T04:54:27.018Z,89.60
2019-03-27T04:56:58.080Z,89.47
2019-03-27T04:59:29.333Z,89.24
2019-03-27T05:02:00.680Z,88.49
2019-03-27T05:04:32.439Z,87.39
2019-03-27T05:07:03.583Z,87.13
2019-03-27T05:09:34.941Z,85.78
2019-03-27T05:12:06.392Z,85.20
2019-03-27T05:14:37.839Z,84.19
2019-03-27T05:17:09.010Z,83.68
2019-03-27T05:19:40.448Z,83.24
2019-03-27T05:22:11.686Z,81.63
2019-03-27T05:24:42.971Z,77.95
2019-03-27T05:27:14.286Z,76.60
2019-03-27T05:29:45.631Z,74.05
2019-03-27T05:32:17.298Z,74.35
2019-03-27T05:34:48.648Z,74.21
2019-03-27T05:37:20.001Z,72.79
2019-03-27T05:39:51.452Z,70.61
2019-03-27T05:42:22.604Z,70.92
2019-03-27T05:44:55.594Z,69.23
2019-03-27T05:47:26.834Z,68.04
2019-03-27T05:49:58.083Z,65.91
2019-03-27T05:52:29.526Z,65.96
2019-03-27T05:55:00.983Z,62.87
2019-03-27T05:57:32.546Z,64.00
2019-03-27T06:00:05.033Z,62.92
2019-03-27T06:02:36.203Z,62.73
2019-03-27T06:05:07.509Z,59.86
2019-03-27T06:07:38.864Z,61.06
2019-03-27T06:10:10.211Z,59.88
2019-03-27T06:12:41.523Z,60.36
2019-03-27T06:15:13.086Z,58.25
2019-03-27T06:17:44.613Z,57.33
2019-03-27T06:20:16.017Z,56.57
2019-03-27T06:22:48.409Z,56.66
2019-03-27T06:25:19.965Z,56.76
2019-03-27T06:27:51.122Z,58.19
2019-03-27T06:30:22.472Z,56.34
2019-03-27T06:32:53.912Z,55.75
2019-03-27T06:35:25.366Z,57.02
2019-03-27T06:37:56.729Z,58.67
2019-03-27T06:40:28.272Z,56.68
2019-03-27T06:42:59.549Z,56.23
2019-03-27T06:45:31.689Z,56.80
2019-03-27T06:48:03.041Z,55.49
2019-03-27T06:50:34.496Z,54.43
2019-03-27T06:53:06.052Z,57.39
2019-03-27T06:55:37.294Z,54.76
2019-03-27T06:58:08.858Z,55.02
2019-03-27T07:00:40.295Z,55.80
2019-03-27T07:03:11.764Z,55.27
2019-03-27T07:05:43.116Z,52.98
2019-03-27T07:08:14.461Z,52.93
2019-03-27T07:10:45.721Z,51.17
2019-03-27T07:13:17.068Z,51.11
2019-03-27T07:15:48.420Z,49.41
2019-03-27T07:18:19.861Z,48.50
2019-03-27T07:20:51.212Z,45.51
2019-03-27T07:23:22.467Z,47.78
2019-03-27T07:25:54.738Z,46.55
2019-03-27T07:28:26.088Z,42.68
2019-03-27T07:30:57.438Z,44.66
2019-03-27T07:33:28.693Z,43.10
2019-03-27T07:35:59.845Z,43.75
2019-03-27T07:38:30.977Z,43.14
2019-03-27T07:41:02.023Z,42.34
2019-03-27T07:43:33.363Z,40.49
2019-03-27T07:46:04.825Z,41.49
2019-03-27T07:48:36.089Z,40.02
2019-03-27T07:51:07.322Z,40.29
2019-03-27T07:53:38.569Z,40.56
2019-03-27T07:56:09.723Z,41.63
2019-03-27T07:58:41.178Z,41.58
2019-03-27T08:01:12.627Z,40.34
2019-03-27T08:03:43.699Z,40.51
2019-03-27T08:06:15.135Z,41.56
2019-03-27T08:08:46.372Z,41.63
2019-03-27T08:11:17.548Z,43.21
2019-03-27T08:13:48.968Z,41.16
2019-03-27T08:16:20.040Z,41.26
2019-03-27T08:18:51.250Z,41.47
2019-03-27T08:21:22.598Z,43.52
2019-03-27T08:23:53.856Z,41.36
2019-03-27T08:26:25.210Z,43.67
2019-03-27T08:28:56.464Z,44.01
2019-03-27T08:31:27.915Z,42.30
2019-03-27T08:33:59.363Z,41.86
2019-03-27T08:36:30.717Z,42.60
2019-03-27T08:39:02.280Z,43.16
2019-03-27T08:41:35.880Z,43.78
2019-03-27T08:44:07.019Z,43.27
2019-03-27T08:46:38.472Z,44.08
2019-03-27T08:49:21.258Z,43.69
2019-03-27T08:51:43.014Z,44.92
2019-03-27T08:54:14.267Z,46.36
2019-03-27T08:56:45.344Z,48.23
2019-03-27T08:59:16.556Z,48.54
2019-03-27T09:01:47.703Z,49.09
2019-03-27T09:04:19.261Z,49.80
2019-03-27T09:06:50.201Z,48.68
2019-03-27T09:09:21.860Z,46.97
2019-03-27T09:11:53.413Z,46.78
2019-03-27T09:14:24.669Z,45.87
2019-03-27T09:16:56.417Z,46.60
2019-03-27T09:19:35.731Z,46.38
2019-03-27T09:22:01.275Z,46.43
2019-03-27T09:24:32.549Z,44.81
2019-03-27T09:27:04.082Z,44.51
2019-03-27T09:29:35.432Z,42.67
2019-03-27T09:32:06.735Z,43.51
2019-03-27T09:34:38.644Z,45.48
2019-03-27T09:37:10.084Z,43.59
2019-03-27T09:39:41.725Z,42.65
2019-03-27T09:42:13.298Z,44.82
2019-03-27T09:44:44.851Z,43.54
2019-03-27T09:47:16.832Z,43.19
2019-03-27T09:49:49.795Z,43.85
2019-03-27T09:52:21.591Z,43.79
2019-03-27T09:54:53.337Z,43.93
2019-03-27T09:57:25.100Z,44.20
2019-03-27T09:59:57.063Z,43.05
2019-03-27T10:02:28.512Z,42.15
2019-03-27T10:05:00.231Z,42.62
2019-03-27T10:07:31.831Z,42.27
2019-03-27T10:10:03.490Z,42.21
2019-03-27T10:12:34.943Z,40.59
2019-03-27T10:15:09.783Z,40.79
2019-03-27T10:17:41.123Z,43.76
2019-03-27T10:20:13.804Z,41.37
2019-03-27T10:22:45.261Z,40.75
2019-03-27T10:25:17.931Z,39.63
2019-03-27T10:27:49.600Z,39.23
2019-03-27T10:30:21.683Z,41.34
2019-03-27T10:32:53.316Z,38.95
2019-03-27T10:35:25.082Z,37.78
2019-03-27T10:37:56.943Z,40.40
2019-03-27T10:40:28.513Z,39.48
2019-03-27T10:43:00.185Z,38.67
2019-03-27T10:45:32.029Z,39.54
2019-03-27T10:48:03.686Z,41.02
2019-03-27T10:50:35.541Z,41.95
2019-03-27T10:53:07.304Z,40.89
2019-03-27T10:55:38.859Z,40.85
2019-03-27T10:58:10.622Z,39.24
2019-03-27T11:00:42.488Z,39.02
2019-03-27T11:03:14.142Z,39.97
2019-03-27T11:05:45.693Z,39.42
2019-03-27T11:08:17.365Z,42.13
2019-03-27T11:10:49.010Z,38.99
2019-03-27T11:13:20.783Z,41.06
2019-03-27T11:15:52.436Z,41.37
2019-03-27T11:18:24.191Z,41.68
2019-03-27T11:20:55.665Z,39.94
2019-03-27T11:23:28.525Z,41.66
2019-03-27T11:26:00.101Z,41.60
2019-03-27T11:28:31.842Z,41.08
2019-03-27T11:31:03.707Z,41.43
2019-03-27T11:33:35.038Z,42.29
2019-03-27T11:36:06.604Z,43.18
2019-03-27T11:38:38.265Z,42.42
2019-03-27T11:41:12.245Z,41.75
2019-03-27T11:43:54.089Z,42.31
2019-03-27T11:46:16.560Z,41.63
2019-03-27T11:48:48.389Z,42.05
2019-03-27T11:51:20.141Z,43.69
2019-03-27T11:53:51.608Z,44.28
2019-03-27T11:56:23.286Z,43.66
2019-03-27T11:58:54.919Z,44.46
2019-03-27T12:01:39.350Z,43.35
2019-03-27T12:03:59.977Z,43.86
2019-03-27T12:06:31.729Z,44.59
2019-03-27T12:09:04.793Z,45.35
2019-03-27T12:11:36.167Z,48.62
2019-03-27T12:14:07.814Z,49.30
2019-03-27T12:16:39.495Z,50.74
2019-03-27T12:19:11.130Z,52.71
2019-03-27T12:21:43.010Z,54.46
2019-03-27T12:24:14.553Z,56.17
2019-03-27T12:26:46.226Z,58.08
2019-03-27T12:29:18.265Z,58.67
2019-03-27T12:31:50.157Z,60.82
2019-03-27T12:34:22.012Z,62.60
2019-03-27T12:36:53.578Z,64.69
2019-03-27T12:39:25.111Z,67.27
2019-03-27T12:41:56.871Z,68.04
2019-03-27T12:44:28.429Z,70.11
2019-03-27T12:47:00.197Z,71.54
2019-03-27T12:49:31.754Z,72.72
2019-03-27T12:52:05.529Z,72.85
2019-03-27T12:54:36.396Z,72.59
2019-03-27T12:57:08.059Z,73.04
2019-03-27T12:59:40.017Z,74.95
2019-03-27T13:02:11.576Z,75.25
2019-03-27T13:04:43.224Z,76.39
2019-03-27T13:07:15.402Z,77.17
2019-03-27T13:09:46.966Z,77.06
2019-03-27T13:12:18.721Z,79.68
2019-03-27T13:14:50.599Z,79.94
2019-03-27T13:17:22.337Z,79.65
2019-03-27T13:19:54.222Z,80.88
2019-03-27T13:22:25.880Z,79.60
2019-03-27T13:24:57.623Z,80.11
2019-03-27T13:27:29.077Z,79.37
2019-03-27T13:30:00.730Z,80.12
2019-03-27T13:32:32.274Z,81.15
2019-03-27T13:35:05.997Z,81.71
2019-03-27T13:37:37.559Z,81.65
2019-03-27T13:40:09.208Z,81.89
2019-03-27T13:42:40.863Z,82.48
2019-03-27T13:45:12.518Z,83.92
2019-03-27T13:47:44.279Z,84.20
2019-03-27T13:50:16.866Z,84.66
2019-03-27T13:52:48.233Z,85.81
2019-03-27T13:55:19.968Z,85.29
2019-03-27T13:57:51.938Z,86.63
2019-03-27T14:00:23.797Z,86.83
2019-03-27T14:02:55.259Z,86.95
2019-03-27T14:05:26.907Z,86.12
2019-03-27T14:07:58.494Z,86.64
2019-03-27T14:10:30.536Z,86.23
2019-03-27T14:13:02.398Z,87.42
2019-03-27T14:15:33.863Z,87.02
2019-03-27T14:18:05.717Z,87.58
2019-03-27T14:20:37.263Z,88.39
2019-03-27T14:23:08.927Z,88.42
2019-03-27T14:25:40.675Z,88.91
2019-03-27T14:28:12.446Z,89.04
2019-03-27T14:30:49.012Z,89.46
2019-03-27T14:33:20.750Z,90.20
2019-03-27T14:35:52.085Z,90.70
2019-03-27T14:38:23.781Z,90.76
2019-03-27T14:40:55.643Z,91.39
2019-03-27T14:43:27.402Z,91.83
2019-03-27T14:45:59.375Z,92.07
2019-03-27T14:48:30.826Z,92.29
2019-03-27T14:51:03.508Z,91.87
2019-03-27T14:53:35.368Z,92.61
2019-03-27T14:56:06.818Z,92.11
2019-03-27T14:58:38.298Z,91.42
2019-03-27T15:01:10.137Z,91.09
2019-03-27T15:03:41.720Z,90.99
2019-03-27T15:06:13.349Z,91.10
2019-03-27T15:08:44.819Z,91.16
2019-03-27T15:11:16.363Z,91.45
2019-03-27T15:13:48.328Z,91.64
2019-03-27T15:16:19.987Z,91.59
2019-03-27T15:18:52.677Z,91.56
2019-03-27T15:21:24.270Z,91.61
2019-03-27T15:23:55.905Z,91.75
2019-03-27T15:26:27.634Z,91.60
2019-03-27T15:28:59.607Z,91.28
2019-03-27T15:31:31.060Z,91.25
2019-03-27T15:34:02.708Z,91.58
2019-03-27T15:36:34.283Z,92.01
2019-03-27T15:39:07.542Z,92.43
2019-03-27T15:41:38.871Z,92.57
2019-03-27T15:44:10.474Z,92.61
2019-03-27T15:46:42.028Z,92.97
2019-03-27T15:49:13.575Z,92.99
2019-03-27T15:51:45.339Z,93.15
2019-03-27T15:54:17.006Z,93.55
2019-03-27T15:56:48.963Z,93.73
2019-03-27T15:59:20.621Z,93.61
2019-03-27T16:01:52.489Z,93.63
2019-03-27T16:04:24.079Z,93.58
2019-03-27T16:06:57.023Z,93.78
2019-03-27T16:09:28.688Z,93.96
2019-03-27T16:12:00.342Z,94.27
2019-03-27T16:14:32.003Z,94.28
2019-03-27T16:17:13.199Z,94.26
2019-03-27T16:19:37.156Z,94.38
2019-03-27T16:22:08.921Z,94.61
2019-03-27T16:24:40.585Z,94.94
2019-03-27T16:27:12.538Z,95.03
2019-03-27T16:29:44.011Z,94.84
2019-03-27T16:32:15.653Z,95.21
2019-03-27T16:34:47.306Z,95.42
2019-03-27T16:37:19.076Z,95.62
2019-03-27T16:39:50.520Z,95.81
2019-03-27T16:42:22.208Z,96.08
2019-03-27T16:44:53.739Z,96.23
2019-03-27T16:47:25.298Z,96.38
2019-03-27T16:49:57.057Z,96.54
2019-03-27T16:52:28.619Z,96.64
2019-03-27T16:55:00.358Z,96.69
2019-03-27T16:57:31.926Z,96.64
2019-03-27T17:00:04.614Z,96.62
2019-03-27T17:02:36.365Z,96.55
2019-03-27T17:05:07.916Z,96.57
2019-03-27T17:07:39.584Z,96.48
2019-03-27T17:10:11.848Z,96.52
2019-03-27T17:12:43.301Z,96.55
2019-03-27T17:15:15.063Z,96.47
2019-03-27T17:17:46.829Z,96.44
2019-03-27T17:20:18.690Z,96.38
2019-03-27T17:22:50.543Z,96.40
2019-03-27T17:25:22.012Z,96.30
2019-03-27T17:27:55.751Z,96.21
2019-03-27T17:30:26.692Z,96.16
2019-03-27T17:32:58.235Z,96.12
2019-03-27T17:35:29.761Z,96.01
2019-03-27T17:38:01.518Z,96.01
2019-03-27T17:40:32.910Z,96.08
2019-03-27T17:43:04.646Z,96.11
2019-03-27T17:45:36.379Z,96.25
2019-03-27T17:48:08.263Z,96.25
2019-03-27T17:50:39.811Z,96.32
2019-03-27T17:53:11.570Z,96.36
2019-03-27T17:55:43.427Z,96.34
2019-03-27T17:58:15.048Z,96.32
2019-03-27T18:00:49.240Z,96.27
2019-03-27T18:03:32.625Z,96.21
2019-03-27T18:06:03.989Z,96.14
2019-03-27T18:08:35.139Z,96.03
2019-03-27T18:11:08.100Z,95.94
2019-03-27T18:13:39.666Z,95.82
2019-03-27T18:16:11.236Z,95.59
2019-03-27T18:18:42.775Z,95.49
2019-03-27T18:21:14.571Z,95.52
2019-03-27T18:23:46.850Z,95.53
2019-03-27T18:26:18.670Z,95.39
2019-03-27T18:28:50.333Z,95.27
2019-03-27T18:31:21.783Z,95.55
2019-03-27T18:33:53.237Z,95.78
2019-03-27T18:36:26.028Z,95.78
2019-03-27T18:38:57.681Z,95.79
2019-03-27T18:41:29.448Z,96.02
2019-03-27T18:44:03.228Z,96.18
2019-03-27T18:46:34.392Z,96.34
2019-03-27T18:49:06.050Z,96.64
2019-03-27T18:51:37.813Z,96.78
2019-03-27T18:54:09.569Z,97.02
2019-03-27T18:56:41.059Z,97.11
2019-03-27T18:59:12.991Z,97.13
2019-03-27T19:01:44.756Z,97.23
2019-03-27T19:04:16.306Z,97.30
2019-03-27T19:06:47.851Z,97.32
2019-03-27T19:09:19.846Z,97.38
2019-03-27T19:11:51.483Z,97.50
2019-03-27T19:14:22.940Z,97.59
2019-03-27T19:16:54.590Z,97.69
2019-03-27T19:19:26.343Z,97.78
2019-03-27T19:21:58.115Z,97.85
2019-03-27T19:24:29.693Z,97.92
2019-03-27T19:27:01.430Z,97.96
2019-03-27T19:29:34.009Z,97.94
2019-03-27T19:32:05.403Z,98.00
2019-03-27T19:34:37.228Z,98.02
2019-03-27T19:37:08.987Z,98.01
2019-03-27T19:39:41.873Z,98.03
2019-03-27T19:42:14.349Z,98.04
2019-03-27T19:44:45.719Z,98.09
2019-03-27T19:47:17.455Z,98.10
2019-03-27T19:49:49.315Z,98.15
2019-03-27T19:52:20.872Z,98.13
2019-03-27T19:54:52.642Z,98.10
2019-03-27T19:57:24.285Z,98.05
2019-03-27T19:59:56.042Z,98.03
2019-03-27T20:02:27.603Z,98.04
2019-03-27T20:04:59.264Z,98.00
2019-03-27T20:07:36.229Z,98.03
2019-03-27T20:10:59.782Z,98.02
2019-03-27T20:13:46.696Z,98.02
2019-03-27T20:16:18.345Z,98.01
2019-03-27T20:18:50.111Z,97.98
2019-03-27T20:21:21.503Z,97.96
2019-03-27T20:23:53.117Z,97.93
2019-03-27T20:27:10.227Z,97.91
2019-03-27T20:29:41.975Z,97.92
2019-03-27T20:32:13.525Z,97.96
2019-03-27T20:34:45.285Z,98.02
2019-03-27T20:37:16.848Z,98.09
2019-03-27T20:39:48.605Z,98.08
2019-03-27T20:42:20.261Z,98.14
2019-03-27T20:45:07.266Z,98.16
2019-03-27T20:47:38.723Z,98.22
2019-03-27T20:50:10.175Z,98.19
2019-03-27T20:52:41.534Z,98.15
2019-03-27T20:55:12.976Z,98.08
2019-03-27T20:57:44.330Z,97.99
2019-03-27T21:00:16.298Z,97.87
2019-03-27T21:02:47.647Z,97.78
2019-03-27T21:05:18.893Z,97.71
2019-03-27T21:07:50.247Z,97.58
2019-03-27T21:10:21.494Z,97.44
2019-03-27T21:12:52.947Z,97.36
2019-03-27T21:15:24.402Z,97.31
2019-03-27T21:17:55.755Z,97.30
2019-03-27T21:20:27.416Z,97.28
2019-03-27T21:22:58.689Z,97.28
2019-03-27T21:25:30.113Z,97.31
2019-03-27T21:28:01.258Z,97.37
2019-03-27T21:30:32.707Z,97.44
2019-03-27T21:33:03.960Z,97.48
2019-03-27T21:35:35.514Z,97.51
2019-03-27T21:38:06.962Z,97.56
2019-03-27T21:40:38.164Z,97.61
2019-03-27T21:43:09.450Z,97.69
2019-03-27T21:45:40.816Z,97.72
2019-03-27T21:48:12.478Z,97.73
2019-03-27T21:50:44.026Z,97.77
2019-03-27T21:53:15.480Z,97.76
2019-03-27T21:55:46.728Z,97.76
2019-03-27T21:58:18.166Z,97.77
2019-03-27T22:00:49.643Z,97.74
2019-03-27T22:03:20.988Z,97.80
2019-03-27T22:05:52.443Z,97.80
2019-03-27T22:08:25.021Z,97.78
2019-03-27T22:10:56.292Z,97.83
2019-03-27T22:13:27.824Z,97.82
2019-03-27T22:16:00.202Z,97.85
2019-03-27T22:18:31.549Z,97.91
2019-03-27T22:21:03.078Z,97.93
2019-03-27T22:23:34.451Z,98.01
2019-03-27T22:26:05.701Z,98.00
2019-03-27T22:28:37.356Z,98.01
2019-03-27T22:31:08.916Z,98.03
2019-03-27T22:33:40.263Z,98.00
2019-03-27T22:36:11.621Z,97.98
2019-03-27T22:38:43.274Z,98.02
2019-03-27T22:41:14.418Z,98.04
2019-03-27T22:43:45.878Z,98.10
2019-03-27T22:46:17.015Z,98.15
2019-03-27T22:48:48.369Z,98.12
2019-03-27T22:51:19.614Z,98.11
2019-03-27T22:53:51.083Z,98.06
2019-03-27T22:56:22.523Z,98.01
2019-03-27T22:58:53.772Z,97.97
2019-03-27T23:01:25.227Z,97.93
2019-03-27T23:03:56.680Z,97.87
2019-03-27T23:06:27.931Z,97.79
2019-03-27T23:08:59.181Z,97.78
2019-03-27T23:11:30.633Z,97.72
2019-03-27T23:14:01.981Z,97.68
2019-03-27T23:16:33.349Z,97.58
2019-03-27T23:19:04.578Z,97.53
2019-03-27T23:21:35.924Z,97.47
2019-03-27T23:24:07.281Z,97.45
2019-03-27T23:26:38.826Z,97.33
2019-03-27T23:29:10.289Z,97.28
2019-03-27T23:31:41.642Z,97.27
2019-03-27T23:34:13.004Z,97.19
2019-03-27T23:36:44.445Z,97.17
2019-03-27T23:39:15.683Z,97.14
2019-03-27T23:41:47.151Z,97.00
2019-03-27T23:44:18.600Z,96.99
2019-03-27T23:46:49.854Z,97.01
2019-03-27T23:49:21.223Z,97.18
2019-03-27T23:51:52.753Z,97.23
2019-03-27T23:54:24.015Z,97.12
2019-03-27T23:56:55.342Z,97.06
2019-03-27T23:59:26.612Z,97.01
